Athol Springs, NY (14010)

4:34 AM EDT on August 30, 2015 (GMT -0400)
Hamburg | | Change Station
CLOSE
Current Station
Personal Weather Station
Location: Hamburg, NY
Elevation: 594 ft
Nearby Weather Stations

Elev 594 ft 42.76 °N, 78.88 °W | Updated 10 minutes ago

Overcast
Overcast
67.0 °F
Feels Like 67.0 °F
N
0.0
Wind Variable Wind from WSW
Gusts 0.0 mph

Today
High -- | Low -- °F
--% Chance of Precip.
Yesterday
High -- | Low -- °F
Precip. -- in
6:37 AM 7:53 PM
Waxing Gibbous, 99% visible
Pressure 30.05 in
Visibility 10.0 miles
Clouds Mostly Cloudy 6500 ft
Overcast 9000 ft
Dew Point 62 °F
Humidity 85%
Rainfall 0.00 in
Snow Depth Not available.
UV 0 out of 12
Pollen 9.90 out of 12
Air Quality Not available.
Flu Activity Not available.
METAR KBUF 300754Z 00000KT 10SM BKN065 OVC090 20/17 A3006 RMK AO2 RAB36E46 SLP175 P0000 T02000167
Pressure 30.05 in
Visibility 10.0 miles
Clouds Mostly Cloudy 6500 ft
Overcast 9000 ft
Dew Point 62 °F
Humidity 85%
Rainfall 0.00 in
Snow Depth Not available.
UV 0 out of 12
Pollen 9.90 out of 12
Air Quality Not available.
Flu Activity Not available.
METAR KBUF 300754Z 00000KT 10SM BKN065 OVC090 20/17 A3006 RMK AO2 RAB36E46 SLP175 P0000 T02000167

10-Day Weather Forecast

×

Almanac

Astronomy

Aug. 30, 2015 Rise Set
Actual Time
Civil Twilight
Nautical Twilight
Astronomical Twilight
Moon
Length of Visible Light
Length of Day
Tomorrow will be .
, % of the Moon is Illuminated

Today's Extremes

State Highs State Lows

Community

WunderPhotos

Upload Photos

1,850,909 photos uploaded!

WunderBlogs® & News

Nearby

Air Quality

  Air Quality AQ Index Pollutant
Not available.

Snow Depth

Station Depth Elevation

Earthquake Activity

City Distance Mag. Time & Date
Minimum magnitude displayed is 2.5.

Coastal Water Temperatures

Place Temperature

Stations

Nearby Weather Stations

Station Location Temp. Windchill Dew Point Humidity Wind Precip. Elev Updated Type